Time;durP1;ratioP1;P1;durP2;ratioP2;P2;SDS_P1;SDS_P2;PMS_P1;PMS_P2;Temp;Humidity;BMP_temperature;BMP_pressure;BME280_temperature;BME280_humidity;BME280_pressure;Samples;Min_cycle;Max_cycle;Signal;HPM_P1;HPM_P2
2022/07/05 06:07:54;;;;;;;6.05;4.07;;;;;;;24.88;71.78;100719.09;5106830;27;20428;-75
2022/07/05 06:10:25;;;;;;;4.90;3.58;;;;;;;25.05;70.89;100726.19;5088173;28;20399;-75
2022/07/05 06:12:56;;;;;;;6.15;3.97;;;;;;;25.24;66.87;100738.44;5071335;28;20052;-75
2022/07/05 06:15:25;;;;;;;3.60;3.25;;;;;;;25.43;66.55;100740.34;5071487;28;20075;-75
2022/07/05 06:17:53;;;;;;;4.57;3.47;;;;;;;25.52;66.52;100733.63;5071025;28;20071;-75
2022/07/05 06:20:23;;;;;;;7.28;2.60;;;;;;;25.87;64.27;100726.91;5071200;28;20394;-75
2022/07/05 06:22:53;;;;;;;6.07;3.50;;;;;;;25.97;62.69;100731.00;5070161;28;20407;-74
2022/07/05 06:25:22;;;;;;;5.88;2.90;;;;;;;26.02;62.12;100733.47;5071575;28;20379;-74
2022/07/05 06:28:00;;;;;;;5.78;3.17;;;;;;;25.91;61.10;100733.38;5071256;28;20517;-75
2022/07/05 06:30:31;;;;;;;3.15;2.63;;;;;;;26.03;61.41;100730.28;5070773;28;20047;-75
2022/07/05 06:32:59;;;;;;;3.35;2.75;;;;;;;26.18;59.92;100719.22;5070726;28;20044;-73
2022/07/05 06:35:27;;;;;;;3.38;2.45;;;;;;;26.34;59.65;100723.81;5088608;28;20037;-74
2022/07/05 06:37:59;;;;;;;6.05;2.95;;;;;;;26.36;59.96;100715.81;5087917;28;20044;-74
2022/07/05 06:40:29;;;;;;;4.63;3.28;;;;;;;26.26;60.66;100720.13;5088246;28;20391;-73
2022/07/05 06:43:00;;;;;;;4.88;3.55;;;;;;;26.47;59.44;100713.94;5088448;28;20040;-74
2022/07/05 06:45:39;;;;;;;6.00;3.42;;;;;;;26.02;60.04;100725.88;5073617;28;20044;-73
2022/07/05 06:48:11;;;;;;;4.13;3.17;;;;;;;26.20;60.07;100724.47;5087445;28;20052;-73
2022/07/05 06:50:43;;;;;;;3.80;3.13;;;;;;;26.65;59.53;100730.13;5053905;28;20056;-73
2022/07/05 06:53:20;;;;;;;7.47;3.20;;;;;;;26.50;57.03;100724.38;5087815;28;20059;-73
2022/07/05 06:55:51;;;;;;;7.65;2.78;;;;;;;26.77;56.42;100732.63;5083062;28;20056;-72
2022/07/05 06:58:24;;;;;;;4.38;3.03;;;;;;;27.00;56.08;100716.78;5088262;28;20040;-73
2022/07/05 07:00:58;;;;;;;7.50;3.60;;;;;;;27.15;56.23;100726.09;5087869;28;20052;-73
2022/07/05 07:03:53;;;;;;;3.83;2.90;;;;;;;27.30;55.49;100729.78;5072741;28;20049;-73
2022/07/05 07:06:49;;;;;;;2.85;2.38;;;;;;;27.33;53.90;100727.00;5088129;28;20048;-73
2022/07/05 07:09:31;;;;;;;4.85;2.90;;;;;;;27.21;55.43;100730.16;5087318;28;20052;-73
2022/07/05 07:12:04;;;;;;;5.53;3.50;;;;;;;26.76;56.55;100735.81;5087870;28;20056;-73
2022/07/05 07:14:37;;;;;;;3.75;3.13;;;;;;;26.96;57.25;100728.78;5066316;28;20525;-73
2022/07/05 07:17:42;;;;;;;4.00;2.85;;;;;;;27.02;56.53;100743.25;5068797;28;20072;-73
2022/07/05 07:20:40;;;;;;;5.20;3.65;;;;;;;26.93;57.70;100726.75;5070321;28;20407;-73
2022/07/05 07:23:53;;;;;;;4.43;3.63;;;;;;;27.20;57.98;100732.16;5072854;28;20041;-73
2022/07/05 07:26:28;;;;;;;8.13;4.35;;;;;;;27.17;58.26;100732.16;5073442;28;20040;-73
2022/07/05 07:28:59;;;;;;;4.82;3.38;;;;;;;27.36;58.40;100717.81;5072675;28;20518;-73
2022/07/05 07:31:27;;;;;;;5.80;3.72;;;;;;;27.17;58.14;100720.91;5074228;28;20081;-73
2022/07/05 07:33:56;;;;;;;6.45;3.83;;;;;;;27.26;58.23;100717.75;5061804;28;20049;-73
2022/07/05 07:36:25;;;;;;;3.80;3.40;;;;;;;27.38;57.69;100731.47;5068843;28;20047;-73
2022/07/05 07:38:56;;;;;;;6.40;3.88;;;;;;;27.28;58.26;100729.41;5073372;28;20048;-73
2022/07/05 07:41:24;;;;;;;4.60;3.28;;;;;;;27.40;56.64;100734.69;5073377;28;20052;-73
2022/07/05 07:43:52;;;;;;;4.95;4.00;;;;;;;27.21;57.81;100728.16;5073422;28;20391;-73
2022/07/05 07:46:20;;;;;;;5.07;3.42;;;;;;;27.12;57.77;100730.50;5073238;28;20048;-73
2022/07/05 07:48:48;;;;;;;5.03;3.65;;;;;;;26.92;57.96;100729.94;5073570;28;20506;-73
2022/07/05 07:51:16;;;;;;;4.75;3.28;;;;;;;27.18;55.74;100733.75;5073168;28;20530;-73
2022/07/05 07:53:45;;;;;;;4.47;3.60;;;;;;;27.20;56.07;100731.34;5070961;28;20411;-73
2022/07/05 07:56:13;;;;;;;3.70;2.95;;;;;;;27.49;55.97;100723.91;5071608;28;20056;-73
2022/07/05 07:58:41;;;;;;;6.85;4.03;;;;;;;27.72;55.35;100730.44;5072891;28;20055;-73
2022/07/05 08:01:10;;;;;;;10.07;3.28;;;;;;;27.79;55.25;100733.28;5072574;28;20487;-73
2022/07/05 08:03:40;;;;;;;3.45;2.90;;;;;;;28.11;54.43;100714.91;5072815;28;20045;-73
2022/07/05 08:06:10;;;;;;;5.53;3.10;;;;;;;28.00;54.00;100715.69;5073143;28;20056;-73
2022/07/05 08:08:39;;;;;;;4.82;3.50;;;;;;;27.99;54.96;100710.44;5072836;28;20048;-73
2022/07/05 08:11:09;;;;;;;5.45;3.00;;;;;;;28.17;53.23;100707.69;5070975;28;20044;-73
2022/07/05 08:13:40;;;;;;;3.33;2.85;;;;;;;28.33;53.49;100714.97;5070148;28;20063;-73
2022/07/05 08:16:13;;;;;;;5.43;2.40;;;;;;;28.33;52.77;100712.97;5062531;28;20052;-73
2022/07/05 08:22:19;;;;;;;4.38;2.90;;;;;;;28.30;50.82;100708.16;5072485;28;20037;-73
2022/07/05 08:24:49;;;;;;;2.78;2.28;;;;;;;28.28;50.33;100704.91;5071355;28;20048;-73
2022/07/05 08:27:37;;;;;;;2.03;1.90;;;;;;;28.43;48.75;100714.16;5053733;28;20049;-73
2022/07/05 08:30:25;;;;;;;;;;;;;;;;;;;;;
2022/07/05 08:33:35;;;;;;;2.65;1.55;;;;;;;28.50;49.33;100705.72;5072961;28;20487;-73
2022/07/05 08:36:10;;;;;;;2.65;1.75;;;;;;;28.70;46.75;100708.94;5064721;28;20064;-73
2022/07/05 08:38:58;;;;;;;4.45;1.55;;;;;;;28.83;46.86;100708.53;5071423;28;20070;-73
2022/07/05 08:41:39;;;;;;;2.40;1.60;;;;;;;28.86;46.59;100710.59;5072541;28;20406;-73
2022/07/05 08:44:50;;;;;;;2.08;1.88;;;;;;;28.74;47.02;100710.97;5072460;28;20514;-73
2022/07/05 08:47:50;;;;;;;1.73;1.45;;;;;;;29.05;44.99;100709.34;5067463;28;20708;-73
2022/07/05 08:50:26;;;;;;;2.08;1.60;;;;;;;29.26;45.01;100706.91;5068197;28;20052;-73
2022/07/05 08:53:10;;;;;;;1.75;1.65;;;;;;;29.03;44.50;100714.56;5071437;28;20372;-73
2022/07/05 08:56:09;;;;;;;2.30;1.63;;;;;;;29.31;44.97;100718.53;5072449;28;20057;-73
2022/07/05 08:59:10;;;;;;;2.63;1.88;;;;;;;29.52;42.65;100705.63;5072714;28;20059;-73
2022/07/05 09:02:02;;;;;;;1.38;1.27;;;;;;;29.48;42.94;100705.63;5072706;28;20398;-73
2022/07/05 09:04:52;;;;;;;1.65;1.55;;;;;;;29.70;44.72;100708.34;5072472;28;20503;-72
2022/07/05 09:07:29;;;;;;;1.75;1.65;;;;;;;29.68;45.43;100701.53;5086461;28;20057;-73
2022/07/05 09:10:02;;;;;;;2.87;1.77;;;;;;;29.86;45.39;100698.63;5071650;28;20040;-73
2022/07/05 09:12:31;;;;;;;2.38;1.45;;;;;;;30.03;45.14;100688.44;5072507;28;20037;-74
2022/07/05 09:14:59;;;;;;;4.20;1.90;;;;;;;29.91;45.08;100689.72;5052381;28;20056;-73
2022/07/05 09:17:28;;;;;;;2.72;2.03;;;;;;;29.99;44.96;100691.28;5073233;28;20395;-72
2022/07/05 09:20:09;;;;;;;3.63;2.20;;;;;;;30.23;43.60;100688.75;5054991;28;20052;-72
2022/07/05 09:22:53;;;;;;;2.00;1.85;;;;;;;30.12;43.40;100693.66;5071593;28;20056;-72
2022/07/05 09:25:23;;;;;;;1.85;1.73;;;;;;;30.23;43.31;100696.38;5071422;28;20066;-73
2022/07/05 09:27:55;;;;;;;3.20;1.83;;;;;;;30.38;43.37;100691.44;5071980;28;20491;-73
2022/07/05 09:30:26;;;;;;;2.87;1.70;;;;;;;30.39;42.14;100695.88;5071364;28;20037;-73
2022/07/05 09:33:06;;;;;;;1.88;1.77;;;;;;;30.69;42.37;100700.09;5072217;28;20127;-73
2022/07/05 09:35:37;;;;;;;4.28;2.00;;;;;;;30.65;41.84;100690.81;5071099;28;20412;-73
2022/07/05 09:38:06;;;;;;;2.05;1.70;;;;;;;30.89;41.97;100683.34;5072254;28;20056;-73
2022/07/05 09:40:48;;;;;;;3.97;1.67;;;;;;;30.77;42.45;100690.34;5071034;28;20051;-73
2022/07/05 09:43:19;;;;;;;4.18;2.17;;;;;;;30.78;43.49;100694.75;5071577;28;20045;-73
2022/07/05 09:45:56;;;;;;;3.03;2.10;;;;;;;31.07;43.49;100688.81;5069443;28;20499;-72
2022/07/05 09:48:25;;;;;;;4.45;3.05;;;;;;;30.80;42.86;100697.97;5066981;28;20059;-72
2022/07/05 09:51:09;;;;;;;3.37;2.60;;;;;;;30.91;44.04;100695.06;5067327;28;20759;-72
2022/07/05 09:53:58;;;;;;;2.60;2.40;;;;;;;31.22;43.63;100686.63;5064271;28;20287;-73
2022/07/05 09:56:31;;;;;;;3.08;2.40;;;;;;;31.30;43.16;100678.91;5068733;28;20399;-73
2022/07/05 09:59:14;;;;;;;2.97;2.63;;;;;;;31.10;43.40;100685.16;5071805;28;20051;-73
2022/07/05 10:01:43;;;;;;;3.53;2.60;;;;;;;30.93;44.16;100672.81;5069615;28;20052;-72
2022/07/05 10:04:11;;;;;;;4.35;2.25;;;;;;;31.10;43.22;100681.53;5071253;28;20048;-73
2022/07/05 10:06:40;;;;;;;3.45;2.60;;;;;;;31.00;43.60;100669.13;5071354;28;20067;-73
2022/07/05 10:09:10;;;;;;;2.63;2.42;;;;;;;31.21;42.71;100687.06;5070213;28;20044;-73
2022/07/05 10:11:41;;;;;;;3.28;2.58;;;;;;;31.26;42.12;100680.94;5071233;28;20526;-73
2022/07/05 10:14:18;;;;;;;2.55;2.35;;;;;;;31.41;41.94;100680.81;5071713;28;20060;-73
2022/07/05 10:16:59;;;;;;;6.45;2.30;;;;;;;31.48;41.33;100684.31;5071369;28;20056;-73
2022/07/05 10:19:33;;;;;;;3.08;1.95;;;;;;;31.51;41.33;100677.03;5070701;28;20056;-73
2022/07/05 10:22:02;;;;;;;4.80;2.15;;;;;;;31.61;41.43;100676.09;5071813;28;20115;-73
2022/07/05 10:24:48;;;;;;;1.83;1.67;;;;;;;31.74;40.83;100673.50;5070732;28;20048;-73
2022/07/05 10:27:18;;;;;;;5.03;2.00;;;;;;;31.80;40.78;100684.34;5071130;28;20041;-73
2022/07/05 10:29:49;;;;;;;5.93;3.00;;;;;;;31.61;41.09;100681.75;5070747;28;20044;-73
2022/07/05 10:32:18;;;;;;;4.22;2.50;;;;;;;31.33;39.98;100674.44;5070911;28;20391;-73
2022/07/05 10:34:48;;;;;;;2.92;2.15;;;;;;;31.41;39.76;100666.69;5070701;28;20071;-73
2022/07/05 10:37:31;;;;;;;;;;;;;;;31.50;39.39;100664.13;5071611;28;20051;-72
2022/07/05 10:40:02;;;;;;;1.83;1.73;;;;;;;31.98;39.78;100670.78;5068950;28;19931;-73
2022/07/05 10:42:36;;;;;;;2.80;2.42;;;;;;;31.76;39.45;100661.75;5071069;28;20048;-72
2022/07/05 10:45:23;;;;;;;2.88;2.00;;;;;;;32.11;38.99;100656.03;5069933;28;20048;-73
2022/07/05 10:48:10;;;;;;;2.50;1.92;;;;;;;32.23;37.30;100663.09;5069731;28;20048;-72
2022/07/05 10:50:50;;;;;;;1.67;1.58;;;;;;;32.30;37.48;100660.19;5070434;28;20052;-73
2022/07/05 10:53:24;;;;;;;1.70;1.60;;;;;;;32.68;37.13;100656.28;5068387;28;20045;-73
2022/07/05 10:56:04;;;;;;;1.58;1.48;;;;;;;32.46;36.81;100661.53;5071528;28;20044;-73
2022/07/05 10:58:33;;;;;;;1.77;1.67;;;;;;;32.55;37.35;100656.13;5073574;28;20055;-73
2022/07/05 11:01:19;;;;;;;1.23;1.17;;;;;;;32.94;36.10;100665.94;5072124;28;20047;-73
2022/07/05 11:04:00;;;;;;;1.63;1.52;;;;;;;32.89;36.17;100657.13;5073211;28;20040;-73
2022/07/05 11:06:31;;;;;;;2.72;1.30;;;;;;;32.98;36.90;100651.72;5073628;28;20068;-73
2022/07/05 11:09:02;;;;;;;1.92;1.73;;;;;;;33.13;35.80;100662.78;5073099;28;20388;-73
2022/07/05 11:11:33;;;;;;;1.77;1.35;;;;;;;33.29;34.30;100651.53;5072529;28;20044;-73
2022/07/05 11:14:21;;;;;;;2.08;1.42;;;;;;;33.41;34.54;100657.75;5069801;28;20045;-73
2022/07/05 11:17:11;;;;;;;5.05;1.73;;;;;;;33.24;34.88;100649.97;5072466;28;20513;-73
2022/07/05 11:20:01;;;;;;;2.83;1.45;;;;;;;33.05;34.07;100647.94;5072048;28;20518;-73
2022/07/05 11:22:30;;;;;;;1.00;1.00;;;;;;;33.14;34.87;100645.34;5072589;28;20059;-73
2022/07/05 11:25:00;;;;;;;1.48;1.38;;;;;;;33.50;34.33;100632.44;5072537;28;20060;-74
2022/07/05 11:27:29;;;;;;;1.92;1.45;;;;;;;33.52;33.83;100641.31;5072669;28;20037;-73
2022/07/05 11:29:57;;;;;;;1.33;1.20;;;;;;;33.14;33.48;100636.84;5072842;28;20049;-73
2022/07/05 11:32:28;;;;;;;1.77;1.27;;;;;;;33.33;33.53;100635.22;5070903;28;20058;-73
2022/07/05 11:35:17;;;;;;;1.45;1.13;;;;;;;33.63;33.33;100629.75;5072547;28;20059;-72
2022/07/05 11:38:02;;;;;;;1.17;1.08;;;;;;;33.79;33.46;100626.13;5070169;28;20044;-73
2022/07/05 11:40:50;;;;;;;2.40;1.50;;;;;;;33.93;33.73;100625.00;5070792;28;20044;-73
2022/07/05 11:43:30;;;;;;;0.90;0.90;;;;;;;33.97;33.54;100614.38;5072072;28;20391;-74
2022/07/05 11:45:59;;;;;;;3.25;1.70;;;;;;;34.09;33.40;100627.06;5072110;28;20045;-74
2022/07/05 11:48:35;;;;;;;1.70;1.40;;;;;;;34.31;33.26;100618.81;5071075;28;20070;-73
2022/07/05 11:51:13;;;;;;;1.50;1.35;;;;;;;34.48;33.26;100612.28;5072165;28;20068;-74
2022/07/05 11:53:42;;;;;;;1.35;1.02;;;;;;;34.55;32.41;100618.59;5072576;28;20398;-74
2022/07/05 11:56:30;;;;;;;1.25;1.10;;;;;;;34.53;32.89;100617.44;5071889;28;20052;-74
2022/07/05 11:59:15;;;;;;;1.60;1.27;;;;;;;34.27;31.84;100609.59;5072044;28;20503;-73
2022/07/05 12:01:46;;;;;;;6.07;1.42;;;;;;;34.35;32.83;100603.72;5072380;28;20047;-73
2022/07/05 12:04:26;;;;;;;3.25;1.30;;;;;;;34.74;32.47;100610.41;5072404;28;20131;-73
2022/07/05 12:06:55;;;;;;;1.30;1.20;;;;;;;34.93;32.07;100597.28;5070571;28;20048;-73
2022/07/05 12:12:42;;;;;;;1.73;1.30;;;;;;;35.09;30.80;100604.97;5071730;28;20048;-74
2022/07/05 12:15:20;;;;;;;1.80;1.13;;;;;;;35.41;29.96;100607.28;5071643;28;20403;-74
2022/07/05 12:17:50;;;;;;;1.40;1.30;;;;;;;34.83;30.53;100599.19;5069801;28;20071;-73
2022/07/05 12:20:23;;;;;;;1.27;1.25;;;;;;;35.07;31.36;100606.63;5072003;28;20048;-73
2022/07/05 12:22:51;;;;;;;1.33;1.23;;;;;;;35.03;32.03;100603.91;5071672;28;20047;-73
2022/07/05 12:25:21;;;;;;;1.75;1.13;;;;;;;34.90;31.99;100601.03;5070989;28;20419;-73
2022/07/05 12:27:53;;;;;;;2.17;1.60;;;;;;;35.13;31.34;100602.00;5071516;28;20041;-73
2022/07/05 12:30:22;;;;;;;1.65;1.10;;;;;;;35.21;30.37;100600.56;5071320;28;20056;-73
2022/07/05 12:33:02;;;;;;;1.45;1.35;;;;;;;35.25;31.44;100598.38;5071594;28;20056;-73
2022/07/05 12:35:44;;;;;;;1.65;1.27;;;;;;;35.14;31.11;100588.59;5071298;28;20510;-73
2022/07/05 12:38:14;;;;;;;2.53;1.30;;;;;;;35.31;31.34;100592.94;5071175;28;20048;-73
2022/07/05 12:40:44;;;;;;;2.20;0.93;;;;;;;35.28;30.21;100593.84;5071487;28;20384;-74
2022/07/05 12:43:14;;;;;;;2.88;1.13;;;;;;;35.48;31.51;100590.78;5072318;28;20049;-74
2022/07/05 13:27:30;;;;;;;2.25;1.40;;;;;;;35.57;32.80;100598.66;5109098;27;20417;-74
2022/07/05 13:29:59;;;;;;;3.55;1.60;;;;;;;35.60;32.61;100594.13;5108109;28;20035;-75
2022/07/05 13:32:27;;;;;;;1.77;1.45;;;;;;;35.59;31.69;100589.66;5109253;28;20051;-75
2022/07/05 13:34:55;;;;;;;1.55;1.45;;;;;;;35.60;32.01;100579.91;5109016;28;20058;-75
2022/07/05 13:37:23;;;;;;;1.40;1.23;;;;;;;35.73;31.87;100571.38;5096458;28;20044;-75
2022/07/05 13:39:51;;;;;;;1.90;1.33;;;;;;;35.75;31.68;100585.94;5101489;28;20048;-74
2022/07/05 13:42:19;;;;;;;0.95;0.95;;;;;;;35.75;31.06;100577.38;5102249;28;20036;-74
2022/07/05 13:44:47;;;;;;;1.77;1.50;;;;;;;35.92;30.73;100570.31;5088038;28;20045;-75
2022/07/05 13:47:15;;;;;;;1.58;1.27;;;;;;;35.84;30.91;100571.00;5101936;28;20046;-75
2022/07/05 13:49:43;;;;;;;1.27;1.20;;;;;;;36.16;31.47;100569.16;5096768;28;20715;-75
2022/07/05 13:52:12;;;;;;;1.25;1.15;;;;;;;36.63;30.72;100573.22;5090039;28;20106;-74
2022/07/05 13:54:43;;;;;;;2.22;1.70;;;;;;;36.78;29.57;100567.78;5097203;28;20418;-74
2022/07/05 13:57:11;;;;;;;2.63;1.58;;;;;;;36.83;29.78;100575.75;5104023;28;20533;-75
2022/07/05 13:59:39;;;;;;;1.25;1.15;;;;;;;36.50;30.05;100576.09;5101127;28;20047;-75
2022/07/05 14:02:06;;;;;;;1.48;1.30;;;;;;;36.21;30.63;100574.25;5108220;28;20055;-75
2022/07/05 14:04:34;;;;;;;1.40;1.30;;;;;;;36.73;29.94;100570.44;5108015;28;20043;-75
2022/07/05 14:07:03;;;;;;;1.27;1.17;;;;;;;37.00;29.96;100566.16;5108481;28;20390;-75
2022/07/05 14:09:31;;;;;;;2.20;1.15;;;;;;;37.22;29.12;100566.97;5107369;28;20035;-75
2022/07/05 14:11:59;;;;;;;1.15;1.05;;;;;;;37.13;29.00;100558.34;5108228;28;20053;-75
2022/07/05 14:14:26;;;;;;;1.45;1.35;;;;;;;37.01;28.27;100562.06;5107397;28;20049;-75
2022/07/05 14:16:54;;;;;;;1.58;1.30;;;;;;;36.95;28.89;100551.25;5107904;28;20039;-75
2022/07/05 14:19:22;;;;;;;1.50;1.40;;;;;;;36.96;29.62;100555.72;5108501;28;20063;-75
2022/07/05 14:21:50;;;;;;;4.43;1.60;;;;;;;37.08;29.04;100548.31;5108212;28;20044;-75
2022/07/05 14:24:18;;;;;;;4.90;1.65;;;;;;;36.87;28.28;100547.09;5108285;28;20375;-75
2022/07/05 14:26:46;;;;;;;1.67;1.45;;;;;;;36.66;28.59;100537.31;5108136;28;20063;-75
2022/07/05 14:29:14;;;;;;;1.15;1.05;;;;;;;36.63;29.48;100535.38;5099180;28;20130;-75
2022/07/05 14:31:42;;;;;;;1.98;1.60;;;;;;;36.78;29.33;100544.16;5103745;28;20055;-76
2022/07/05 14:34:10;;;;;;;1.05;1.05;;;;;;;37.06;29.61;100535.78;5108561;28;20048;-75
2022/07/05 14:36:38;;;;;;;1.63;1.45;;;;;;;37.05;29.06;100535.00;5106312;28;20434;-75
2022/07/05 14:39:06;;;;;;;1.73;1.63;;;;;;;36.80;29.14;100535.97;5109407;28;20041;-75
2022/07/05 14:41:34;;;;;;;1.70;1.50;;;;;;;36.84;28.72;100517.47;5093715;28;20044;-75
2022/07/05 14:44:02;;;;;;;2.03;1.88;;;;;;;36.80;28.12;100513.94;5093086;28;20387;-75
2022/07/05 14:46:30;;;;;;;4.80;1.60;;;;;;;36.71;29.22;100511.06;5094307;28;20040;-76
2022/07/05 14:48:58;;;;;;;1.42;1.20;;;;;;;36.77;28.74;100509.19;5091572;28;20048;-75
2022/07/05 14:51:26;;;;;;;1.80;1.20;;;;;;;37.02;29.32;100498.84;5073866;28;20044;-76
2022/07/05 14:53:54;;;;;;;1.10;1.00;;;;;;;36.69;30.55;100496.44;5078805;28;20040;-75
2022/07/05 14:56:22;;;;;;;3.83;1.23;;;;;;;36.97;28.85;100503.13;5075887;28;20051;-75
2022/07/05 14:58:50;;;;;;;2.33;1.65;;;;;;;36.92;28.19;100498.03;5086320;28;20044;-75
2022/07/05 15:01:18;;;;;;;3.92;1.52;;;;;;;36.76;29.49;100496.19;5082824;28;20067;-75
2022/07/05 15:03:46;;;;;;;2.38;1.55;;;;;;;36.68;30.22;100495.69;5079636;28;20036;-75
2022/07/05 15:06:14;;;;;;;2.72;1.60;;;;;;;36.69;28.29;100491.56;5103645;28;20044;-74
2022/07/05 15:08:42;;;;;;;1.55;1.15;;;;;;;36.73;29.03;100499.97;5072523;28;20391;-75
2022/07/05 15:11:10;;;;;;;2.75;1.58;;;;;;;36.96;28.43;100492.97;5072740;28;20048;-74
2022/07/05 15:13:38;;;;;;;1.33;1.25;;;;;;;37.35;28.18;100495.56;5072871;28;20056;-75
2022/07/05 15:16:07;;;;;;;2.80;1.15;;;;;;;37.35;27.16;100489.03;5073378;28;20044;-75
2022/07/05 15:18:35;;;;;;;1.23;1.13;;;;;;;36.85;28.26;100481.19;5055766;28;20407;-74
2022/07/05 15:21:04;;;;;;;3.17;1.30;;;;;;;37.03;28.47;100485.41;5073213;28;20047;-75
2022/07/05 15:23:32;;;;;;;3.15;1.38;;;;;;;36.88;28.57;100485.97;5072374;28;20502;-74
2022/07/05 15:26:00;;;;;;;3.88;1.20;;;;;;;36.45;28.72;100489.16;5069797;28;20522;-74
2022/07/05 15:28:30;;;;;;;0.98;0.98;;;;;;;36.38;29.20;100483.72;5089431;28;20048;-74
2022/07/05 15:30:58;;;;;;;1.33;1.23;;;;;;;36.36;28.57;100477.69;5072264;28;20040;-74
2022/07/05 15:33:29;;;;;;;1.52;1.15;;;;;;;36.51;28.61;100474.31;5080228;28;20051;-74
2022/07/05 15:35:58;;;;;;;3.60;1.33;;;;;;;36.33;28.98;100481.47;5101302;28;20043;-74
2022/07/05 15:38:27;;;;;;;4.20;1.73;;;;;;;36.09;29.31;100473.34;5081759;28;20165;-74
2022/07/05 15:40:56;;;;;;;2.47;1.25;;;;;;;35.80;28.17;100473.56;5086195;28;20057;-74
2022/07/05 15:43:28;;;;;;;1.85;1.58;;;;;;;35.80;29.60;100480.03;5079324;28;20048;-74
2022/07/05 15:45:57;;;;;;;1.30;1.23;;;;;;;35.95;30.52;100479.56;5059657;28;20071;-74
2022/07/05 15:48:26;;;;;;;3.55;1.30;;;;;;;35.92;29.32;100478.44;5057746;28;20407;-72
2022/07/05 15:50:55;;;;;;;1.83;1.20;;;;;;;35.43;29.78;100479.63;5073795;28;20048;-73
2022/07/05 15:53:28;;;;;;;1.83;1.52;;;;;;;35.41;29.59;100477.25;5087076;28;20056;-74
2022/07/05 15:56:00;;;;;;;1.45;1.35;;;;;;;35.11;30.64;100473.72;5078525;28;20049;-74
2022/07/05 15:58:29;;;;;;;1.80;1.38;;;;;;;35.10;30.27;100470.06;5069650;28;20063;-74
2022/07/05 16:00:59;;;;;;;1.80;1.50;;;;;;;34.91;30.38;100462.53;5066074;28;20518;-74
2022/07/05 16:03:29;;;;;;;1.52;1.42;;;;;;;34.83;32.04;100457.09;5070707;28;20045;-74
2022/07/05 16:05:57;;;;;;;1.40;1.30;;;;;;;34.81;30.87;100470.16;5070972;28;20063;-74
2022/07/05 16:08:27;;;;;;;1.35;1.25;;;;;;;34.70;31.12;100459.91;5070825;28;20056;-74
2022/07/05 16:10:55;;;;;;;1.52;1.33;;;;;;;34.65;30.54;100463.28;5071383;28;20055;-74
2022/07/05 16:13:24;;;;;;;1.00;1.00;;;;;;;34.48;31.62;100456.88;5036928;28;20059;-73
2022/07/05 16:16:10;;;;;;;2.85;1.60;;;;;;;34.34;32.14;100457.28;5081065;28;20051;-73
2022/07/05 16:18:47;;;;;;;3.00;1.40;;;;;;;34.44;31.99;100456.16;5081062;28;20993;-73
2022/07/05 16:21:16;;;;;;;1.52;1.42;;;;;;;34.33;31.01;100455.69;5085086;28;20415;-73
2022/07/05 16:23:47;;;;;;;2.22;1.60;;;;;;;34.22;32.40;100451.13;5054177;28;20048;-73
2022/07/05 16:26:15;;;;;;;2.15;1.27;;;;;;;34.21;32.27;100452.38;5069993;28;20064;-74
2022/07/05 16:28:43;;;;;;;4.50;1.63;;;;;;;34.15;32.58;100454.94;5078379;28;20043;-74
2022/07/05 16:31:14;;;;;;;3.08;1.50;;;;;;;34.14;33.03;100458.22;5087545;28;20051;-74
2022/07/05 16:33:52;;;;;;;1.95;1.67;;;;;;;34.14;33.24;100458.22;5072687;28;20437;-74
2022/07/05 16:36:31;;;;;;;1.80;1.48;;;;;;;33.98;33.62;100459.03;5079424;28;20055;-73
2022/07/05 16:39:01;;;;;;;3.10;1.52;;;;;;;33.96;32.56;100456.66;5083088;28;20422;-73
2022/07/05 16:41:38;;;;;;;1.25;1.15;;;;;;;33.99;32.72;100446.44;5081051;28;20399;-73
2022/07/05 16:44:06;;;;;;;2.28;1.35;;;;;;;33.98;31.48;100454.19;5081703;28;20064;-72
2022/07/05 16:46:35;;;;;;;2.67;1.45;;;;;;;33.94;30.88;100459.16;5064404;28;20079;-72
2022/07/05 16:49:03;;;;;;;1.60;1.50;;;;;;;33.89;31.72;100459.69;5080874;28;20063;-75
2022/07/05 16:51:32;;;;;;;1.73;1.60;;;;;;;33.80;31.59;100465.22;5081876;28;20040;-72
2022/07/05 16:54:00;;;;;;;3.28;1.92;;;;;;;33.67;33.82;100459.44;5084751;28;20044;-72
2022/07/05 16:56:28;;;;;;;1.40;1.30;;;;;;;33.63;31.99;100459.53;5082069;28;20052;-72
2022/07/05 16:58:57;;;;;;;2.13;1.55;;;;;;;33.55;32.35;100464.59;5081553;28;20507;-72
2022/07/05 17:01:25;;;;;;;1.83;1.58;;;;;;;33.74;31.32;100459.25;5067237;28;20040;-72
2022/07/05 17:03:54;;;;;;;1.75;1.65;;;;;;;33.77;33.48;100470.50;5080634;28;20052;-72
2022/07/05 17:06:22;;;;;;;2.97;1.40;;;;;;;33.53;33.25;100472.75;5086064;28;20047;-72
2022/07/05 17:08:50;;;;;;;2.47;1.42;;;;;;;33.54;34.26;100476.38;5070536;28;20510;-75
2022/07/05 17:11:19;;;;;;;1.75;1.65;;;;;;;33.57;34.15;100469.84;5077592;28;20497;-75
2022/07/05 17:13:50;;;;;;;2.03;1.92;;;;;;;33.50;34.92;100468.75;5075946;28;20059;-74
2022/07/05 17:16:26;;;;;;;1.50;1.40;;;;;;;33.46;35.31;100479.38;5075122;28;20056;-72
2022/07/05 17:18:56;;;;;;;1.73;1.63;;;;;;;33.45;35.48;100472.09;5078982;28;20407;-74
2022/07/05 17:21:25;;;;;;;2.65;1.80;;;;;;;33.35;35.28;100478.81;5073347;28;20530;-73
2022/07/05 17:23:53;;;;;;;3.72;2.05;;;;;;;33.27;36.41;100483.06;5067299;28;20052;-73
2022/07/05 17:26:24;;;;;;;6.00;2.50;;;;;;;33.23;35.63;100483.16;5069387;28;20060;-73
2022/07/05 17:28:58;;;;;;;6.72;4.55;;;;;;;33.30;35.70;100487.84;5066151;28;20052;-73
2022/07/05 17:31:26;;;;;;;2.30;2.15;;;;;;;33.21;36.02;100491.28;5070039;28;20048;-73
2022/07/05 17:33:54;;;;;;;2.35;1.90;;;;;;;33.22;35.82;100490.84;5069200;28;20051;-72
2022/07/05 17:36:22;;;;;;;2.75;2.55;;;;;;;33.08;35.35;100488.38;5069315;28;20053;-73
2022/07/05 17:38:50;;;;;;;3.25;2.95;;;;;;;33.01;35.52;100497.00;5068335;28;20055;-72
2022/07/05 17:41:26;;;;;;;3.60;2.83;;;;;;;32.93;35.90;100499.19;5069900;28;20403;-72
2022/07/05 17:43:54;;;;;;;2.90;2.65;;;;;;;32.98;35.94;100505.16;5069946;28;20045;-72
2022/07/05 17:46:23;;;;;;;2.78;2.13;;;;;;;32.94;36.13;100504.41;5070123;28;20059;-72
2022/07/05 17:48:52;;;;;;;5.13;4.45;;;;;;;32.84;36.39;100502.63;5069568;28;20049;-72
2022/07/05 17:51:20;;;;;;;4.20;3.30;;;;;;;32.75;37.06;100503.19;5070026;28;20056;-72
2022/07/05 17:54:08;;;;;;;2.83;2.63;;;;;;;32.77;37.09;100508.41;5073658;28;20052;-72
2022/07/05 17:56:36;;;;;;;4.80;2.83;;;;;;;32.75;37.01;100508.06;5070809;28;20048;-72
2022/07/05 17:59:04;;;;;;;4.40;3.65;;;;;;;32.76;37.09;100504.78;5071040;28;20052;-72
2022/07/05 18:01:32;;;;;;;4.50;2.78;;;;;;;32.67;37.70;100513.06;5076816;28;20048;-72
2022/07/05 18:04:00;;;;;;;4.25;2.17;;;;;;;32.53;37.94;100511.31;5073582;28;20036;-73
2022/07/05 18:06:28;;;;;;;8.13;2.78;;;;;;;32.52;38.11;100512.56;5077320;28;20635;-72
2022/07/05 18:08:56;;;;;;;11.32;7.65;;;;;;;32.45;38.03;100522.00;5072140;28;20056;-72
2022/07/05 18:11:29;;;;;;;5.97;3.75;;;;;;;32.30;38.12;100522.25;5076852;28;20044;-72
2022/07/05 18:13:57;;;;;;;3.05;2.45;;;;;;;32.34;37.69;100519.34;5089571;28;20406;-72
2022/07/05 18:16:25;;;;;;;4.82;3.88;;;;;;;32.30;37.68;100527.13;5087639;28;20044;-72
2022/07/05 18:18:53;;;;;;;5.95;3.55;;;;;;;32.33;38.05;100525.41;5091707;28;20040;-72
2022/07/05 18:21:21;;;;;;;14.40;8.43;;;;;;;32.23;38.42;100518.72;5082187;28;20051;-73
2022/07/05 18:23:50;;;;;;;5.03;3.20;;;;;;;32.20;38.20;100528.09;5077454;28;20047;-72
2022/07/05 18:26:20;;;;;;;5.47;3.92;;;;;;;32.20;38.11;100526.06;5084592;28;20059;-72
2022/07/05 18:29:08;;;;;;;21.27;5.00;;;;;;;32.18;38.79;100532.19;5082818;28;21232;-73
2022/07/05 18:31:36;;;;;;;7.68;3.40;;;;;;;32.17;38.16;100519.22;5075309;28;20051;-72
2022/07/05 18:34:05;;;;;;;11.32;6.05;;;;;;;32.21;38.54;100529.69;5083630;28;20075;-72
2022/07/05 18:36:33;;;;;;;8.35;4.88;;;;;;;32.19;38.34;100530.13;5083373;28;20040;-70
2022/07/05 18:39:02;;;;;;;5.28;2.15;;;;;;;32.24;38.37;100538.13;5083879;28;20040;-73
2022/07/05 18:41:31;;;;;;;11.95;8.15;;;;;;;32.06;38.81;100541.28;5044633;28;20481;-73
2022/07/05 18:44:01;;;;;;;6.72;4.95;;;;;;;32.00;38.24;100540.97;5053640;28;20483;-76
2022/07/05 18:46:29;;;;;;;4.47;3.88;;;;;;;31.95;38.79;100547.13;5066547;28;20044;-76
2022/07/05 18:49:00;;;;;;;3.63;2.63;;;;;;;31.91;39.07;100547.19;5064669;28;20043;-76